createdAt,value
2023-06-26T00:00:24.449Z,5.32
2023-06-26T00:03:27.792Z,5.50
2023-06-26T00:06:32.425Z,5.53
2023-06-26T00:12:39.368Z,5.30
2023-06-26T00:15:42.687Z,6.00
2023-06-26T00:18:45.697Z,5.18
2023-06-26T00:21:49.219Z,5.18
2023-06-26T00:24:52.277Z,5.35
2023-06-26T00:27:55.545Z,5.45
2023-06-26T00:30:58.569Z,5.70
2023-06-26T00:34:03.307Z,5.12
2023-06-26T00:37:06.474Z,5.80
2023-06-26T00:40:10.391Z,5.07
2023-06-26T00:43:13.411Z,4.87
2023-06-26T00:49:21.359Z,4.93
2023-06-26T00:52:25.803Z,5.43
2023-06-26T00:55:29.143Z,5.00
2023-06-26T00:58:33.372Z,5.15
2023-06-26T01:01:36.551Z,5.15
2023-06-26T01:04:48.319Z,4.90
2023-06-26T01:07:53.086Z,5.40
2023-06-26T01:10:56.546Z,5.10
2023-06-26T01:14:01.644Z,5.82
2023-06-26T01:17:05.370Z,5.17
2023-06-26T01:20:09.377Z,5.65
2023-06-26T01:23:37.879Z,4.93
2023-06-26T01:26:41.668Z,4.85
2023-06-26T01:29:46.121Z,5.37
2023-06-26T01:32:49.780Z,5.62
2023-06-26T01:35:53.317Z,5.60
2023-06-26T01:38:56.355Z,5.78
2023-06-26T01:42:00.769Z,6.50
2023-06-26T01:45:10.145Z,5.35
2023-06-26T01:48:14.348Z,5.55
2023-06-26T01:51:19.098Z,5.95
2023-06-26T01:54:24.565Z,5.35
2023-06-26T01:57:29.475Z,5.70
2023-06-26T02:00:33.056Z,5.37
2023-06-26T02:03:36.494Z,5.00
2023-06-26T02:06:40.884Z,5.25
2023-06-26T02:09:44.774Z,4.53
2023-06-26T02:12:48.047Z,5.47
2023-06-26T02:15:51.512Z,5.25
2023-06-26T02:18:54.830Z,5.37
2023-06-26T02:21:59.753Z,4.97
2023-06-26T02:25:03.025Z,5.55
2023-06-26T02:28:05.751Z,4.72
2023-06-26T02:31:08.807Z,5.18
2023-06-26T02:34:11.655Z,5.50
2023-06-26T02:37:15.178Z,5.35
2023-06-26T02:40:18.159Z,5.07
2023-06-26T02:43:21.485Z,5.70
2023-06-26T02:46:24.565Z,4.97
2023-06-26T02:49:29.292Z,5.22
2023-06-26T02:52:32.315Z,5.40
2023-06-26T02:55:36.442Z,5.55
2023-06-26T02:58:39.421Z,4.65
2023-06-26T03:01:43.006Z,6.25
2023-06-26T03:04:46.367Z,6.05
2023-06-26T03:07:49.807Z,4.50
2023-06-26T03:10:53.201Z,4.93
2023-06-26T03:13:56.422Z,5.30
2023-06-26T03:17:00.406Z,4.95
2023-06-26T03:23:11.426Z,4.97
2023-06-26T03:29:19.220Z,5.47
2023-06-26T03:32:22.535Z,4.85
2023-06-26T03:35:26.060Z,4.72
2023-06-26T03:38:29.511Z,4.97
2023-06-26T03:41:34.074Z,4.62
2023-06-26T03:44:37.377Z,5.60
2023-06-26T03:47:41.710Z,5.20
2023-06-26T03:50:46.696Z,5.07
2023-06-26T03:53:49.718Z,5.25
2023-06-26T03:56:53.379Z,5.12
2023-06-26T03:59:57.961Z,5.28
2023-06-26T04:03:01.386Z,4.68
2023-06-26T04:06:07.330Z,4.43
2023-06-26T04:09:10.561Z,5.35
2023-06-26T04:12:13.856Z,5.15
2023-06-26T04:15:17.325Z,4.93
2023-06-26T04:18:21.771Z,5.03
2023-06-26T04:21:26.087Z,5.37
2023-06-26T04:24:30.798Z,5.28
2023-06-26T04:27:35.848Z,5.40
2023-06-26T04:30:40.387Z,5.12
2023-06-26T04:33:43.842Z,4.70
2023-06-26T04:36:49.184Z,5.43
2023-06-26T04:39:52.266Z,5.20
2023-06-26T04:42:55.852Z,5.35
2023-06-26T04:45:59.106Z,5.57
2023-06-26T04:49:04.634Z,4.95
2023-06-26T04:52:08.150Z,5.22
2023-06-26T04:55:11.634Z,5.93
2023-06-26T04:58:16.183Z,6.32
2023-06-26T05:04:22.479Z,6.20
2023-06-26T05:07:25.798Z,6.10
2023-06-26T05:10:28.849Z,5.85
2023-06-26T05:13:32.024Z,6.00
2023-06-26T05:16:35.722Z,6.50
2023-06-26T05:19:38.968Z,5.97
2023-06-26T05:22:42.200Z,6.80
2023-06-26T05:25:45.736Z,6.78
2023-06-26T05:28:49.953Z,6.10
2023-06-26T05:31:54.988Z,6.55
2023-06-26T05:38:03.424Z,6.78
2023-06-26T05:41:07.450Z,6.60
2023-06-26T05:44:10.680Z,6.50
2023-06-26T05:47:13.675Z,6.47
2023-06-26T05:50:18.914Z,5.80
2023-06-26T05:53:22.161Z,5.72
2023-06-26T05:56:25.676Z,5.45
2023-06-26T05:59:29.089Z,6.00
2023-06-26T06:02:32.570Z,5.20
2023-06-26T06:05:36.070Z,5.22
2023-06-26T06:08:39.313Z,5.85
2023-06-26T06:11:42.829Z,5.55
2023-06-26T06:14:45.701Z,5.93
2023-06-26T06:17:49.160Z,6.05
2023-06-26T06:20:53.687Z,5.80
2023-06-26T06:27:00.581Z,5.93
2023-06-26T06:30:05.142Z,5.75
2023-06-26T06:33:09.702Z,5.87
2023-06-26T06:36:13.018Z,6.10
2023-06-26T06:39:15.935Z,5.50
2023-06-26T06:42:19.098Z,6.05
2023-06-26T06:45:22.222Z,6.05
2023-06-26T06:48:25.523Z,5.62
2023-06-26T06:51:28.917Z,5.57
2023-06-26T06:54:32.137Z,5.37
2023-06-26T06:57:38.558Z,5.07
2023-06-26T07:00:41.966Z,5.10
2023-06-26T07:03:45.144Z,4.93
2023-06-26T07:06:48.550Z,5.65
2023-06-26T07:09:52.764Z,4.97
2023-06-26T07:15:59.734Z,4.95
2023-06-26T07:19:03.247Z,4.78
2023-06-26T07:22:06.359Z,5.05
2023-06-26T07:25:10.983Z,4.80
2023-06-26T07:28:14.014Z,4.85
2023-06-26T07:31:18.049Z,4.93
2023-06-26T07:34:21.045Z,5.00
2023-06-26T07:37:24.321Z,4.95
2023-06-26T07:40:36.772Z,4.78
2023-06-26T07:43:40.188Z,4.60
2023-06-26T07:46:43.371Z,4.75
2023-06-26T07:49:46.805Z,4.80
2023-06-26T07:52:50.114Z,4.40
2023-06-26T07:55:53.441Z,4.30
2023-06-26T07:58:58.546Z,4.43
2023-06-26T08:02:03.583Z,4.57
2023-06-26T08:05:08.443Z,4.60
2023-06-26T08:11:18.831Z,4.28
2023-06-26T08:14:22.270Z,4.10
2023-06-26T08:17:30.417Z,4.37
2023-06-26T08:20:38.674Z,4.12
2023-06-26T08:23:42.549Z,4.32
2023-06-26T08:26:48.210Z,4.45
2023-06-26T08:29:53.201Z,3.75
2023-06-26T08:32:58.105Z,3.67
2023-06-26T08:36:02.046Z,4.50
2023-06-26T08:39:06.840Z,3.75
2023-06-26T08:42:10.220Z,3.75
2023-06-26T08:45:13.465Z,3.92
2023-06-26T08:48:17.194Z,3.90
2023-06-26T08:51:22.036Z,4.05
2023-06-26T08:54:30.123Z,3.70
2023-06-26T08:57:33.369Z,3.37
2023-06-26T09:00:37.425Z,3.90
2023-06-26T09:03:42.787Z,4.00
2023-06-26T09:06:46.290Z,3.75
2023-06-26T09:09:49.296Z,4.05
2023-06-26T09:12:57.217Z,3.58
2023-06-26T09:16:00.563Z,3.70
2023-06-26T09:19:03.988Z,3.80
2023-06-26T09:22:13.819Z,3.70
2023-06-26T09:25:19.398Z,3.60
2023-06-26T09:28:22.318Z,3.47
2023-06-26T09:31:40.348Z,3.33
2023-06-26T09:34:46.021Z,3.67
2023-06-26T09:37:49.814Z,3.37
2023-06-26T09:40:52.826Z,3.10
2023-06-26T09:43:59.485Z,3.45
2023-06-26T09:47:05.704Z,3.03
2023-06-26T09:50:22.774Z,3.35
2023-06-26T09:53:26.925Z,3.17
2023-06-26T09:56:31.106Z,3.55
2023-06-26T09:59:34.783Z,3.65
2023-06-26T10:02:38.068Z,3.47
2023-06-26T10:05:42.065Z,3.67
2023-06-26T10:08:45.421Z,3.27
2023-06-26T10:11:51.661Z,3.12
2023-06-26T10:14:54.917Z,3.47
2023-06-26T10:17:58.605Z,3.83
2023-06-26T10:24:06.680Z,3.40
2023-06-26T10:27:14.719Z,3.10
2023-06-26T10:30:21.456Z,3.03
2023-06-26T10:33:24.351Z,4.05
2023-06-26T10:39:50.748Z,3.47
2023-06-26T10:43:08.782Z,3.30
2023-06-26T10:46:12.015Z,2.90
2023-06-26T10:49:15.488Z,3.42
2023-06-26T10:52:19.863Z,3.30
2023-06-26T10:55:29.598Z,4.00
2023-06-26T10:58:41.111Z,2.85
2023-06-26T11:01:45.899Z,3.58
2023-06-26T11:04:51.311Z,3.47
2023-06-26T11:08:05.729Z,3.05
2023-06-26T11:14:12.589Z,3.17
2023-06-26T11:17:17.599Z,3.08
2023-06-26T11:20:20.866Z,2.70
2023-06-26T11:23:27.839Z,2.60
2023-06-26T11:26:31.067Z,2.72
2023-06-26T11:29:34.950Z,2.55
2023-06-26T11:32:41.077Z,2.70
2023-06-26T11:35:44.371Z,2.78
2023-06-26T11:38:47.664Z,2.90
2023-06-26T11:41:50.678Z,2.58
2023-06-26T11:44:55.238Z,2.47
2023-06-26T11:47:59.533Z,2.25
2023-06-26T11:51:06.598Z,2.70
2023-06-26T11:54:10.796Z,2.40
2023-06-26T11:57:18.602Z,2.65
2023-06-26T12:00:23.161Z,3.10
2023-06-26T12:03:26.562Z,2.00
2023-06-26T12:06:31.034Z,2.17
2023-06-26T12:09:34.944Z,2.28
2023-06-26T12:12:38.049Z,2.30
2023-06-26T12:15:41.438Z,2.22
2023-06-26T12:18:44.847Z,2.37
2023-06-26T12:21:49.794Z,2.60
2023-06-26T12:24:52.755Z,2.17
2023-06-26T12:27:55.891Z,2.58
2023-06-26T12:31:18.216Z,2.70
2023-06-26T12:34:25.209Z,2.53
2023-06-26T12:37:28.712Z,2.60
2023-06-26T12:43:39.647Z,2.30
2023-06-26T12:46:43.140Z,2.03
2023-06-26T12:49:47.090Z,2.58
2023-06-26T12:52:54.648Z,2.60
2023-06-26T12:55:57.685Z,2.50
2023-06-26T12:59:02.522Z,2.60
2023-06-26T13:02:07.686Z,2.15
2023-06-26T13:05:11.564Z,2.40
2023-06-26T13:08:18.764Z,2.55
2023-06-26T13:11:22.807Z,2.95
2023-06-26T13:14:27.162Z,2.40
2023-06-26T13:17:31.895Z,2.72
2023-06-26T13:20:34.894Z,2.28
2023-06-26T13:23:38.249Z,2.58
2023-06-26T13:29:44.753Z,2.73
2023-06-26T13:32:47.840Z,2.45
2023-06-26T13:35:51.328Z,2.65
2023-06-26T13:38:57.374Z,2.58
2023-06-26T13:42:01.490Z,2.30
2023-06-26T13:48:09.566Z,2.22
2023-06-26T13:51:12.717Z,2.67
2023-06-26T13:54:16.022Z,2.70
2023-06-26T13:57:20.680Z,2.78
2023-06-26T14:00:24.200Z,2.50
2023-06-26T14:03:29.639Z,2.50
2023-06-26T14:06:33.719Z,3.05
2023-06-26T14:09:37.781Z,2.60
2023-06-26T14:12:43.023Z,2.60
2023-06-26T14:15:46.317Z,2.72
2023-06-26T14:18:51.193Z,2.90
2023-06-26T14:21:55.453Z,2.80
2023-06-26T14:28:03.181Z,2.75
2023-06-26T14:31:06.880Z,3.10
2023-06-26T14:34:10.319Z,2.60
2023-06-26T14:40:16.844Z,2.73
2023-06-26T14:43:20.458Z,2.50
2023-06-26T14:46:24.284Z,2.62
2023-06-26T14:49:27.784Z,2.62
2023-06-26T14:52:30.924Z,2.80
2023-06-26T14:55:33.760Z,3.00
2023-06-26T14:58:36.696Z,2.87
2023-06-26T15:01:40.248Z,3.08
2023-06-26T15:04:43.848Z,2.92
2023-06-26T15:07:46.926Z,2.92
2023-06-26T15:10:50.214Z,2.78
2023-06-26T15:13:53.533Z,2.55
2023-06-26T15:16:56.856Z,2.75
2023-06-26T15:20:01.032Z,2.70
2023-06-26T15:23:04.474Z,2.60
2023-06-26T15:26:07.475Z,2.95
2023-06-26T15:29:10.766Z,2.47
2023-06-26T15:35:16.914Z,2.62
2023-06-26T15:38:19.946Z,2.35
2023-06-26T15:41:24.749Z,2.85
2023-06-26T15:44:27.816Z,2.90
2023-06-26T15:47:32.563Z,2.70
2023-06-26T15:50:36.978Z,2.60
2023-06-26T15:53:40.519Z,3.17
2023-06-26T15:56:44.811Z,2.60
2023-06-26T15:59:48.252Z,2.90
2023-06-26T16:02:51.307Z,2.78
2023-06-26T16:05:54.614Z,3.15
2023-06-26T16:08:57.890Z,2.90
2023-06-26T16:12:01.189Z,3.05
2023-06-26T16:15:04.548Z,2.53
2023-06-26T16:18:07.947Z,3.15
2023-06-26T16:21:10.937Z,2.50
2023-06-26T16:24:14.298Z,2.50
2023-06-26T16:27:18.181Z,2.37
2023-06-26T16:30:23.203Z,2.60
2023-06-26T16:33:26.177Z,2.78
2023-06-26T16:36:30.759Z,2.70
2023-06-26T16:39:34.404Z,2.70
2023-06-26T16:42:37.709Z,2.60
2023-06-26T16:45:41.670Z,2.30
2023-06-26T16:48:45.370Z,2.67
2023-06-26T16:51:48.553Z,2.33
2023-06-26T16:54:51.882Z,2.60
2023-06-26T17:00:58.575Z,3.20
2023-06-26T17:04:01.737Z,2.20
2023-06-26T17:07:05.652Z,2.40
2023-06-26T17:10:09.377Z,2.33
2023-06-26T17:13:12.784Z,2.33
2023-06-26T17:16:16.980Z,2.62
2023-06-26T17:19:20.307Z,2.08
2023-06-26T17:22:24.871Z,2.35
2023-06-26T17:25:29.340Z,2.03
2023-06-26T17:31:37.013Z,2.20
2023-06-26T17:34:41.208Z,1.90
2023-06-26T17:40:48.619Z,2.10
2023-06-26T17:43:51.978Z,1.92
2023-06-26T17:46:55.421Z,2.20
2023-06-26T17:49:58.764Z,2.37
2023-06-26T17:56:07.646Z,2.70
2023-06-26T17:59:10.797Z,2.30
2023-06-26T18:02:14.320Z,2.10
2023-06-26T18:05:18.198Z,2.17
2023-06-26T18:08:21.996Z,2.42
2023-06-26T18:11:27.330Z,2.37
2023-06-26T18:14:30.396Z,2.22
2023-06-26T18:17:34.744Z,2.30
2023-06-26T18:20:38.181Z,2.33
2023-06-26T18:23:41.646Z,1.92
2023-06-26T18:26:44.623Z,2.08
2023-06-26T18:29:48.109Z,2.40
2023-06-26T18:32:51.520Z,2.53
2023-06-26T18:35:55.474Z,2.25
2023-06-26T18:38:59.126Z,2.12
2023-06-26T18:42:04.969Z,2.42
2023-06-26T18:45:08.688Z,2.30
2023-06-26T18:51:15.049Z,2.37
2023-06-26T18:54:18.304Z,2.90
2023-06-26T18:57:21.410Z,2.08
2023-06-26T19:00:26.472Z,2.53
2023-06-26T19:03:29.983Z,2.20
2023-06-26T19:06:34.262Z,2.20
2023-06-26T19:09:37.226Z,2.60
2023-06-26T19:12:40.675Z,2.10
2023-06-26T19:15:44.140Z,2.33
2023-06-26T19:18:47.941Z,2.55
2023-06-26T19:21:51.111Z,2.95
2023-06-26T19:24:54.771Z,2.00
2023-06-26T19:27:57.888Z,2.20
2023-06-26T19:31:01.428Z,2.20
2023-06-26T19:34:04.754Z,2.72
2023-06-26T19:37:08.674Z,2.58
2023-06-26T19:40:12.386Z,2.17
2023-06-26T19:43:16.201Z,2.08
2023-06-26T19:46:20.265Z,2.35
2023-06-26T19:52:26.929Z,2.30
2023-06-26T19:55:30.542Z,2.50
2023-06-26T19:58:33.823Z,2.55
2023-06-26T20:01:37.270Z,2.50
2023-06-26T20:04:41.505Z,2.05
2023-06-26T20:07:46.612Z,2.37
2023-06-26T20:10:50.506Z,2.40
2023-06-26T20:13:53.524Z,2.37
2023-06-26T20:16:56.921Z,2.45
2023-06-26T20:20:00.170Z,2.47
2023-06-26T20:23:04.194Z,2.57
2023-06-26T20:26:06.893Z,1.95
2023-06-26T20:29:10.584Z,2.78
2023-06-26T20:32:13.676Z,2.70
2023-06-26T20:35:16.947Z,2.47
2023-06-26T20:38:20.506Z,2.47
2023-06-26T20:41:24.013Z,2.33
2023-06-26T20:44:27.476Z,2.20
2023-06-26T20:47:42.831Z,2.47
2023-06-26T20:50:47.141Z,2.97
2023-06-26T20:56:54.107Z,2.70
2023-06-26T20:59:57.694Z,2.42
2023-06-26T21:03:00.833Z,2.45
2023-06-26T21:06:05.738Z,2.40
2023-06-26T21:09:08.851Z,2.78
2023-06-26T21:12:12.136Z,2.50
2023-06-26T21:15:15.261Z,2.40
2023-06-26T21:18:18.711Z,2.40
2023-06-26T21:21:21.651Z,2.40
2023-06-26T21:24:25.120Z,2.40
2023-06-26T21:27:28.270Z,2.78
2023-06-26T21:30:32.620Z,2.70
2023-06-26T21:33:35.639Z,2.55
2023-06-26T21:36:38.808Z,2.72
2023-06-26T21:39:42.249Z,2.50
2023-06-26T21:42:45.492Z,2.62
2023-06-26T21:45:50.631Z,2.47
2023-06-26T21:48:53.890Z,2.55
2023-06-26T21:51:56.837Z,2.70
2023-06-26T21:55:00.307Z,2.42
2023-06-26T21:58:03.206Z,2.92
2023-06-26T22:01:41.310Z,3.10
2023-06-26T22:04:44.525Z,2.42
2023-06-26T22:07:55.779Z,3.08
2023-06-26T22:10:59.839Z,3.03
2023-06-26T22:14:03.094Z,2.45
2023-06-26T22:17:06.439Z,2.47
2023-06-26T22:20:10.357Z,2.90
2023-06-26T22:23:13.565Z,2.55
2023-06-26T22:26:16.553Z,2.28
2023-06-26T22:29:19.804Z,2.22
2023-06-26T22:32:22.767Z,2.70
2023-06-26T22:35:27.441Z,2.90
2023-06-26T22:38:30.297Z,2.90
2023-06-26T22:41:34.907Z,2.50
2023-06-26T22:44:38.032Z,2.50
2023-06-26T22:47:44.792Z,3.30
2023-06-26T22:50:47.806Z,2.70
2023-06-26T22:53:51.392Z,2.60
2023-06-26T22:56:56.212Z,2.75
2023-06-26T23:00:00.030Z,2.72
2023-06-26T23:03:03.507Z,2.75
2023-06-26T23:06:10.073Z,2.70
2023-06-26T23:09:13.396Z,2.80
2023-06-26T23:12:16.712Z,3.22
2023-06-26T23:15:19.718Z,2.67
2023-06-26T23:18:23.125Z,2.40
2023-06-26T23:21:26.112Z,2.42
2023-06-26T23:24:33.924Z,2.50
2023-06-26T23:27:42.675Z,2.90
2023-06-26T23:30:46.067Z,2.97
2023-06-26T23:33:49.823Z,2.80
2023-06-26T23:36:53.131Z,3.22
2023-06-26T23:39:56.187Z,3.42
2023-06-26T23:43:04.660Z,2.90
2023-06-26T23:46:11.627Z,2.58
2023-06-26T23:49:15.027Z,2.80
2023-06-26T23:52:17.941Z,3.08
2023-06-26T23:55:22.888Z,3.30
2023-06-26T23:58:29.143Z,2.83
